Time;durP1;ratioP1;P1;durP2;ratioP2;P2;SDS_P1;SDS_P2;PMS_P1;PMS_P2;Temp;Humidity;BMP_temperature;BMP_pressure;BME280_temperature;BME280_humidity;BME280_pressure;Samples;Min_cycle;Max_cycle;Signal;HPM_P1;HPM_P2
2022/05/09 00:01:14;;;;;;;4.30;3.90;;;;;;;12.61;100.00;99991.66;5028601;28;20202;-54
2022/05/09 00:03:42;;;;;;;5.93;3.70;;;;;;;12.62;100.00;99993.34;5028270;28;20194;-53
2022/05/09 00:06:11;;;;;;;5.43;4.60;;;;;;;12.59;100.00;99988.22;5028799;28;20719;-54
2022/05/09 00:08:39;;;;;;;5.47;3.33;;;;;;;12.30;100.00;99974.28;5028195;28;20223;-53
2022/05/09 00:11:07;;;;;;;4.63;4.10;;;;;;;12.39;100.00;99996.63;5028308;28;20209;-54
2022/05/09 00:13:34;;;;;;;5.57;3.83;;;;;;;12.36;100.00;99992.34;5028377;28;20243;-54
2022/05/09 00:16:01;;;;;;;5.20;4.30;;;;;;;12.31;100.00;99991.63;5028899;28;20225;-55
2022/05/09 00:18:27;;;;;;;5.20;3.93;;;;;;;12.35;100.00;99997.59;5028116;28;20280;-56
2022/05/09 00:20:54;;;;;;;6.87;5.27;;;;;;;12.34;100.00;99999.34;5028105;28;20594;-55
2022/05/09 00:23:23;;;;;;;5.73;4.60;;;;;;;12.36;100.00;99997.56;5028259;28;20203;-54
2022/05/09 00:25:49;;;;;;;11.87;5.10;;;;;;;12.29;100.00;100000.38;5027838;28;20229;-54
2022/05/09 00:28:18;;;;;;;5.93;4.87;;;;;;;12.33;100.00;99994.19;5028255;28;20198;-54
2022/05/09 00:30:45;;;;;;;5.03;4.60;;;;;;;12.31;100.00;99999.41;5028076;28;20273;-53
2022/05/09 00:33:11;;;;;;;4.93;4.53;;;;;;;12.32;100.00;99992.47;5027938;28;20197;-53
2022/05/09 00:35:40;;;;;;;7.23;4.60;;;;;;;12.32;100.00;99990.72;5027623;28;20194;-56
2022/05/09 00:38:08;;;;;;;9.90;4.57;;;;;;;12.26;100.00;99990.06;5028000;28;20193;-56
2022/05/09 00:40:38;;;;;;;5.03;4.63;;;;;;;12.19;100.00;99997.16;5027689;28;20197;-55
2022/05/09 00:43:29;;;;;;;6.10;4.67;;;;;;;12.06;100.00;99997.56;5027889;28;20201;-56
2022/05/09 00:45:56;;;;;;;4.87;4.33;;;;;;;12.13;100.00;99997.34;5027612;28;20477;-53
2022/05/09 00:48:23;;;;;;;6.40;4.97;;;;;;;12.17;100.00;100001.56;5027702;28;20205;-53
2022/05/09 00:50:50;;;;;;;6.20;4.80;;;;;;;12.15;100.00;100003.38;5027501;28;20201;-53
2022/05/09 00:53:18;;;;;;;6.00;5.00;;;;;;;12.02;100.00;100004.59;5026816;28;20211;-56
2022/05/09 00:55:50;;;;;;;8.33;4.70;;;;;;;12.07;100.00;99992.31;5027597;28;20189;-57
2022/05/09 00:58:21;;;;;;;6.60;4.27;;;;;;;12.13;100.00;99992.13;5027718;28;20594;-57
2022/05/09 01:00:50;;;;;;;7.10;4.70;;;;;;;12.10;100.00;99988.75;5027653;28;20202;-57
2022/05/09 01:03:21;;;;;;;5.03;4.47;;;;;;;12.15;100.00;99997.31;5027748;28;20201;-58
2022/05/09 01:05:51;;;;;;;5.47;4.27;;;;;;;12.17;100.00;99995.53;5027525;28;20224;-57
2022/05/09 01:08:18;;;;;;;8.90;4.17;;;;;;;12.19;100.00;99989.34;5027743;28;20198;-57
2022/05/09 01:10:48;;;;;;;8.40;4.40;;;;;;;12.04;100.00;99997.59;5027258;28;20193;-57
2022/05/09 01:13:17;;;;;;;5.37;4.87;;;;;;;11.96;100.00;99995.19;5027298;28;20197;-57
2022/05/09 01:15:48;;;;;;;5.97;4.50;;;;;;;11.95;100.00;99996.09;5027472;28;20201;-57
2022/05/09 01:18:16;;;;;;;7.13;4.60;;;;;;;12.02;100.00;99994.19;5027500;28;20300;-58
2022/05/09 01:20:43;;;;;;;6.77;4.40;;;;;;;11.95;100.00;99985.69;5027344;28;20612;-57
2022/05/09 01:23:12;;;;;;;5.10;4.60;;;;;;;11.94;100.00;99989.19;5027349;28;20288;-56
2022/05/09 01:25:40;;;;;;;6.50;4.77;;;;;;;11.89;100.00;99991.03;5026924;28;20324;-56
2022/05/09 01:28:08;;;;;;;4.83;4.43;;;;;;;11.94;100.00;99989.19;5027463;28;20676;-54
2022/05/09 01:30:44;;;;;;;5.27;4.80;;;;;;;11.86;100.00;99990.25;5027101;28;20203;-55
2022/05/09 01:33:16;;;;;;;7.07;4.97;;;;;;;11.87;100.00;99987.63;5027277;28;20208;-53
2022/05/09 01:35:49;;;;;;;5.10;4.60;;;;;;;11.91;100.00;99988.41;5026995;28;20241;-55
2022/05/09 01:38:25;;;;;;;6.43;4.90;;;;;;;11.87;100.00;99978.97;5026958;28;20193;-54
2022/05/09 01:40:51;;;;;;;6.90;4.90;;;;;;;11.98;100.00;99995.16;5027147;28;20232;-54
2022/05/09 01:43:30;;;;;;;6.20;5.07;;;;;;;11.94;100.00;99998.75;5027149;28;20207;-54
2022/05/09 01:45:57;;;;;;;7.23;5.60;;;;;;;12.09;100.00;99998.31;5026798;28;20234;-54
2022/05/09 01:51:08;;;;;;;5.43;4.87;;;;;;;11.95;100.00;99992.66;5026978;28;20204;-53
2022/05/09 01:53:36;;;;;;;8.37;5.67;;;;;;;11.96;100.00;99991.75;5026749;28;20201;-54
2022/05/09 01:56:03;;;;;;;5.93;5.33;;;;;;;11.85;100.00;99991.19;5026877;28;20193;-54
2022/05/09 01:58:30;;;;;;;6.67;5.20;;;;;;;11.88;100.00;99994.53;5026918;28;20219;-54
2022/05/09 02:00:57;;;;;;;7.33;5.87;;;;;;;11.85;100.00;99984.22;5026856;28;20258;-54
2022/05/09 02:03:24;;;;;;;7.17;5.43;;;;;;;11.86;100.00;99990.25;5028138;28;20197;-54
2022/05/09 02:05:51;;;;;;;6.60;5.37;;;;;;;11.91;100.00;99993.63;5030248;28;20197;-53
2022/05/09 02:08:18;;;;;;;7.03;5.77;;;;;;;11.86;100.00;99993.72;5030261;28;20236;-54
2022/05/09 02:10:46;;;;;;;8.17;5.90;;;;;;;11.86;100.00;99990.25;5030241;28;20212;-54
2022/05/09 02:13:13;;;;;;;7.17;6.20;;;;;;;11.84;100.00;99987.72;5030186;28;20689;-54
2022/05/09 02:15:40;;;;;;;10.50;6.70;;;;;;;11.82;100.00;99994.72;5029842;28;20228;-54
2022/05/09 02:18:07;;;;;;;8.73;5.77;;;;;;;11.84;100.00;99992.94;5029931;28;20201;-54
2022/05/09 02:20:34;;;;;;;6.63;5.97;;;;;;;11.83;100.00;99996.44;5030098;28;20201;-54
2022/05/09 02:23:01;;;;;;;8.50;6.37;;;;;;;11.86;100.00;100000.66;5030138;28;20193;-54
2022/05/09 02:25:29;;;;;;;6.93;6.23;;;;;;;11.85;100.00;99997.22;5029634;28;20244;-54
2022/05/09 02:27:58;;;;;;;6.83;6.13;;;;;;;11.74;100.00;100001.81;5029986;28;20225;-53
2022/05/09 02:30:25;;;;;;;7.97;5.80;;;;;;;11.62;100.00;100008.16;5029854;28;20984;-55
2022/05/09 02:32:52;;;;;;;9.03;6.40;;;;;;;11.63;100.00;100003.81;5030172;28;20700;-54
2022/05/09 02:35:20;;;;;;;7.77;6.33;;;;;;;11.63;100.00;100009.03;5030002;28;20202;-54
2022/05/09 02:37:47;;;;;;;10.60;6.03;;;;;;;11.66;100.00;100008.97;5029697;28;20679;-55
2022/05/09 02:40:15;;;;;;;7.73;6.27;;;;;;;11.61;100.00;100005.63;5029654;28;20209;-54
2022/05/09 02:42:42;;;;;;;6.03;5.53;;;;;;;11.64;100.00;100006.38;5029614;28;20204;-54
2022/05/09 02:45:11;;;;;;;6.80;5.77;;;;;;;11.68;100.00;100006.31;5029596;28;20206;-54
2022/05/09 02:47:40;;;;;;;6.27;5.57;;;;;;;11.67;100.00;100004.63;5025438;28;20718;-53
2022/05/09 02:50:08;;;;;;;6.73;5.63;;;;;;;11.67;100.00;100009.81;5009102;28;20230;-54
2022/05/09 02:52:36;;;;;;;6.50;6.00;;;;;;;11.58;100.00;100016.09;5008613;28;20214;-55
2022/05/09 02:55:03;;;;;;;7.20;6.30;;;;;;;11.51;100.00;100010.19;5009029;28;20233;-56
2022/05/09 02:57:30;;;;;;;6.50;5.90;;;;;;;11.58;100.00;100005.72;5018169;28;20221;-56
2022/05/09 02:59:57;;;;;;;9.83;6.43;;;;;;;11.60;100.00;100017.78;5048990;28;20675;-56
2022/05/09 03:02:26;;;;;;;10.83;6.83;;;;;;;11.55;100.00;100016.16;5048771;28;20223;-58
2022/05/09 03:04:52;;;;;;;7.20;6.50;;;;;;;11.61;100.00;100016.91;5048934;28;20254;-56
2022/05/09 03:07:20;;;;;;;9.00;6.63;;;;;;;11.77;100.00;100014.78;5040731;28;20687;-55
2022/05/09 03:09:49;;;;;;;7.00;6.07;;;;;;;11.80;100.00;100016.44;5017276;28;20308;-56
2022/05/09 03:12:18;;;;;;;11.30;6.40;;;;;;;11.85;100.00;100019.81;5015456;28;20229;-56
2022/05/09 03:14:45;;;;;;;10.43;6.93;;;;;;;11.86;100.00;100018.88;5017711;28;20275;-56
2022/05/09 03:17:13;;;;;;;12.17;6.10;;;;;;;11.73;100.00;100000.13;5016368;28;20794;-56
2022/05/09 03:19:41;;;;;;;6.77;6.10;;;;;;;11.98;100.00;100024.63;5017037;28;20222;-56
2022/05/09 03:22:08;;;;;;;9.60;6.87;;;;;;;11.91;100.00;100027.44;5017593;28;20245;-56
2022/05/09 03:24:36;;;;;;;8.47;6.47;;;;;;;11.90;100.00;100031.78;5018266;28;20595;-56
2022/05/09 03:27:04;;;;;;;10.30;7.00;;;;;;;11.94;100.00;100024.75;5017499;28;20236;-55
2022/05/09 03:29:32;;;;;;;10.87;7.33;;;;;;;12.01;100.00;100028.88;5015451;28;20245;-54
2022/05/09 03:32:00;;;;;;;11.20;8.03;;;;;;;12.00;100.00;100038.44;5020413;28;20213;-54
2022/05/09 03:34:28;;;;;;;12.63;8.87;;;;;;;12.08;100.00;100043.44;5020510;28;20296;-54
2022/05/09 03:36:56;;;;;;;11.70;9.03;;;;;;;12.16;100.00;100035.44;5020896;28;20206;-54
2022/05/09 03:39:23;;;;;;;9.77;8.57;;;;;;;12.14;100.00;100038.09;5028398;28;20193;-54
2022/05/09 03:41:51;;;;;;;10.10;8.63;;;;;;;12.16;100.00;100025.88;5028986;28;20701;-54
2022/05/09 03:44:17;;;;;;;10.93;8.17;;;;;;;12.27;100.00;100046.41;5020204;28;20656;-56
2022/05/09 03:46:45;;;;;;;11.17;7.57;;;;;;;12.36;100.00;100044.41;5018280;28;20221;-55
2022/05/09 03:49:12;;;;;;;11.80;8.37;;;;;;;12.52;100.00;100049.19;5017720;28;20194;-56
2022/05/09 03:51:39;;;;;;;12.13;7.73;;;;;;;12.78;100.00;100031.06;5016088;28;20772;-56
2022/05/09 03:54:07;;;;;;;8.47;7.03;;;;;;;13.58;100.00;100051.19;5016019;28;20189;-54
2022/05/09 03:56:34;;;;;;;13.27;8.57;;;;;;;14.57;98.58;100052.13;5017489;28;20196;-54
2022/05/09 03:59:01;;;;;;;15.63;7.70;;;;;;;15.67;89.22;100054.84;5018476;28;20568;-54
2022/05/09 04:01:28;;;;;;;18.33;7.90;;;;;;;16.34;82.05;100059.84;5016347;28;20193;-55
2022/05/09 04:03:55;;;;;;;20.00;7.00;;;;;;;17.14;77.44;100063.22;5014663;28;20642;-53
2022/05/09 04:06:22;;;;;;;25.07;7.93;;;;;;;17.86;72.38;100065.84;5008004;28;20202;-57
2022/05/09 04:08:49;;;;;;;24.47;6.57;;;;;;;18.55;66.75;100068.41;5013253;28;20280;-55
2022/05/09 04:11:17;;;;;;;25.90;7.30;;;;;;;19.06;63.42;100067.44;5027426;28;20211;-54
2022/05/09 04:13:45;;;;;;;24.60;7.63;;;;;;;19.78;59.73;100066.03;5027401;28;20201;-54
2022/05/09 04:18:59;;;;;;;15.55;6.97;;;;;;;21.28;52.56;100054.19;5027470;28;20196;-55
2022/05/09 04:21:26;;;;;;;15.75;7.05;;;;;;;22.01;50.78;100074.94;5027366;28;20288;-55
2022/05/09 04:23:56;;;;;;;22.30;6.70;;;;;;;22.80;47.50;100077.44;5024287;28;20603;-54
2022/05/09 04:26:24;;;;;;;12.95;6.60;;;;;;;23.26;45.45;100084.75;5006658;28;20299;-54
2022/05/09 04:28:51;;;;;;;22.00;6.55;;;;;;;23.15;45.60;100070.47;5007498;28;20230;-55
2022/05/09 04:31:19;;;;;;;23.50;6.88;;;;;;;23.33;44.84;100078.91;5006940;28;20222;-54
2022/05/09 04:33:46;;;;;;;13.82;6.55;;;;;;;23.81;43.93;100082.47;5007700;28;20225;-54
2022/05/09 04:36:13;;;;;;;12.40;6.45;;;;;;;24.55;42.37;100075.91;5012768;28;20690;-55
2022/05/09 04:38:42;;;;;;;10.02;6.32;;;;;;;25.59;39.79;100086.22;5025481;28;20231;-53
2022/05/09 04:41:10;;;;;;;9.00;6.47;;;;;;;26.16;38.36;100088.53;5025250;28;20221;-54
2022/05/09 04:43:38;;;;;;;13.75;6.80;;;;;;;26.42;37.71;100085.50;5026891;28;20316;-53
2022/05/09 04:46:06;;;;;;;19.00;7.30;;;;;;;26.59;37.66;100085.75;5029238;28;20229;-55
2022/05/09 04:48:34;;;;;;;15.88;7.97;;;;;;;27.36;35.85;100087.88;5046994;28;20225;-55
2022/05/09 04:51:01;;;;;;;16.88;8.27;;;;;;;27.76;35.13;100087.81;5046867;28;20777;-56
2022/05/09 04:53:28;;;;;;;12.60;7.22;;;;;;;28.30;33.85;100086.41;5047287;28;20244;-56
2022/05/09 04:55:56;;;;;;;14.60;8.43;;;;;;;28.88;33.12;100087.09;5046439;28;20612;-55
2022/05/09 04:58:24;;;;;;;20.13;7.60;;;;;;;28.83;32.52;100076.84;5046925;28;20615;-56
2022/05/09 05:00:52;;;;;;;20.88;8.23;;;;;;;28.59;32.87;100092.50;5046765;28;20967;-54
2022/05/09 05:03:19;;;;;;;17.40;7.15;;;;;;;28.81;32.58;100076.13;5046981;28;20733;-55
2022/05/09 05:05:46;;;;;;;16.63;7.32;;;;;;;28.71;32.90;100086.00;5046775;28;20303;-55
2022/05/09 05:08:14;;;;;;;20.10;7.57;;;;;;;28.98;32.54;100087.06;5046791;28;20229;-55
2022/05/09 05:10:42;;;;;;;21.75;7.90;;;;;;;28.68;32.69;100085.44;5045974;28;20281;-56
2022/05/09 05:13:10;;;;;;;16.90;7.63;;;;;;;28.36;32.80;100088.47;5046895;28;20315;-56
2022/05/09 05:15:37;;;;;;;9.52;6.68;;;;;;;27.64;34.21;100086.28;5046526;28;20341;-56
2022/05/09 05:18:05;;;;;;;15.52;7.55;;;;;;;28.13;33.59;100079.91;5027541;28;20221;-56
2022/05/09 05:20:32;;;;;;;22.05;7.40;;;;;;;28.66;33.15;100082.94;5027019;27;20218;-54
2022/05/09 05:22:59;;;;;;;15.52;7.32;;;;;;;29.43;31.77;100084.44;5026733;28;20217;-54
2022/05/09 05:25:30;;;;;;;13.27;7.05;;;;;;;29.63;31.30;100090.47;5026232;28;20239;-53
2022/05/09 05:27:57;;;;;;;17.25;7.32;;;;;;;28.82;31.75;100085.84;5026523;28;20231;-54
2022/05/09 05:30:25;;;;;;;23.15;7.43;;;;;;;28.39;32.56;100083.72;5027278;28;20292;-54
2022/05/09 05:32:52;;;;;;;12.18;7.60;;;;;;;27.88;33.16;100088.53;5027160;28;20734;-54
2022/05/09 05:35:23;;;;;;;14.63;8.65;;;;;;;28.23;32.96;100088.78;5027137;28;20204;-54
2022/05/09 05:37:50;;;;;;;8.50;7.70;;;;;;;28.08;32.54;100095.53;5028204;28;20197;-56
2022/05/09 05:40:18;;;;;;;8.15;7.28;;;;;;;28.00;32.33;100093.56;5033605;28;20285;-55
2022/05/09 05:42:47;;;;;;;9.50;7.13;;;;;;;28.42;31.88;100090.59;5033602;28;20214;-55
2022/05/09 05:45:17;;;;;;;9.93;8.00;;;;;;;28.42;32.26;100088.75;5033788;28;20253;-56
2022/05/09 05:47:44;;;;;;;13.90;7.60;;;;;;;28.78;31.74;100084.44;5033294;28;20231;-57
2022/05/09 05:50:13;;;;;;;9.20;7.25;;;;;;;29.26;30.67;100094.06;5033438;28;20295;-56
2022/05/09 05:52:41;;;;;;;9.63;7.65;;;;;;;28.96;31.25;100089.03;5033375;28;20684;-56
2022/05/09 05:55:10;;;;;;;9.48;6.88;;;;;;;29.25;31.13;100090.53;5033527;28;20201;-56
2022/05/09 05:57:38;;;;;;;7.88;7.10;;;;;;;29.79;30.08;100093.31;5033372;28;20284;-55
2022/05/09 06:00:10;;;;;;;11.57;7.18;;;;;;;29.74;30.44;100095.59;5033486;28;20674;-57
2022/05/09 06:02:38;;;;;;;14.38;6.95;;;;;;;29.33;30.82;100099.66;5033393;28;20278;-56
2022/05/09 06:05:06;;;;;;;8.38;6.70;;;;;;;29.86;30.03;100102.41;5033324;28;20224;-56
2022/05/09 06:07:34;;;;;;;7.55;6.88;;;;;;;29.18;30.68;100097.50;5033536;28;20728;-55
2022/05/09 06:10:02;;;;;;;9.43;7.13;;;;;;;29.15;31.14;100102.28;5033441;28;20296;-54
2022/05/09 06:12:30;;;;;;;8.30;7.18;;;;;;;28.78;31.46;100097.00;5033368;28;20215;-55
2022/05/09 06:17:41;;;;;;;10.20;7.68;;;;;;;29.29;31.01;100099.13;5019369;28;20657;-54
2022/05/09 06:20:10;;;;;;;10.70;7.15;;;;;;;28.76;31.71;100102.44;5033341;28;20193;-55
2022/05/09 06:22:38;;;;;;;9.30;6.78;;;;;;;28.58;31.91;100093.47;5033016;28;20228;-54
2022/05/09 06:25:09;;;;;;;9.23;8.23;;;;;;;28.59;32.18;100089.84;5033343;28;20233;-53
2022/05/09 06:27:36;;;;;;;15.43;7.32;;;;;;;28.20;32.51;100098.94;5033009;28;20223;-54
2022/05/09 06:30:06;;;;;;;7.22;6.63;;;;;;;27.62;33.48;100096.22;5032875;28;20204;-56
2022/05/09 06:32:33;;;;;;;10.05;7.75;;;;;;;27.90;32.74;100087.38;5033052;28;20300;-57
2022/05/09 06:35:01;;;;;;;15.73;7.53;;;;;;;28.13;32.88;100088.78;5032855;28;20197;-55
2022/05/09 06:37:32;;;;;;;11.30;7.72;;;;;;;27.70;33.10;100081.22;5033215;28;20198;-55
2022/05/09 06:39:59;;;;;;;9.07;7.00;;;;;;;27.15;34.09;100090.63;5032906;28;20197;-54
2022/05/09 06:42:28;;;;;;;9.55;7.63;;;;;;;26.56;35.03;100088.66;5032794;28;20202;-55
2022/05/09 06:44:55;;;;;;;8.15;6.53;;;;;;;25.81;36.10;100085.31;5032557;28;20265;-56
2022/05/09 06:47:23;;;;;;;7.68;6.97;;;;;;;26.24;35.49;100085.22;5033023;28;20587;-56
2022/05/09 06:49:49;;;;;;;10.88;6.82;;;;;;;27.24;34.64;100083.63;5029929;28;20202;-55
2022/05/09 06:52:16;;;;;;;8.57;7.30;;;;;;;27.13;34.58;100081.91;5029565;28;20197;-54
2022/05/09 06:54:43;;;;;;;7.28;5.90;;;;;;;26.86;34.47;100079.84;5029479;28;20216;-55
2022/05/09 06:57:10;;;;;;;7.65;6.95;;;;;;;25.93;35.65;100079.81;5029413;28;20737;-55
2022/05/09 06:59:39;;;;;;;7.05;6.35;;;;;;;25.77;36.09;100083.88;5029437;28;20200;-56
2022/05/09 07:02:06;;;;;;;9.02;7.20;;;;;;;25.48;36.59;100073.81;5029395;28;20200;-54
2022/05/09 07:04:33;;;;;;;7.13;6.53;;;;;;;25.93;36.21;100082.47;5029401;28;20665;-55
2022/05/09 07:07:00;;;;;;;12.48;6.88;;;;;;;26.16;35.78;100080.56;5025883;28;20209;-55
2022/05/09 07:09:26;;;;;;;9.02;7.97;;;;;;;26.03;36.22;100072.75;5028914;28;20252;-55
2022/05/09 07:11:54;;;;;;;8.82;8.00;;;;;;;25.97;36.53;100077.72;5028858;28;20211;-55
2022/05/09 07:14:21;;;;;;;8.45;7.28;;;;;;;25.78;36.76;100070.47;5029184;28;20197;-55
2022/05/09 07:16:50;;;;;;;11.05;7.97;;;;;;;25.78;36.52;100054.50;5028979;28;20238;-55
2022/05/09 07:19:17;;;;;;;9.02;7.45;;;;;;;25.84;36.52;100069.13;5029076;28;20590;-53
2022/05/09 07:21:44;;;;;;;8.45;7.60;;;;;;;26.45;35.62;100063.94;5028762;28;20197;-54
2022/05/09 07:24:11;;;;;;;10.50;8.13;;;;;;;26.58;35.17;100061.91;5029025;28;20296;-55
2022/05/09 07:26:39;;;;;;;10.43;7.75;;;;;;;26.76;35.32;100062.97;5028836;28;20240;-55
2022/05/09 07:29:09;;;;;;;11.80;7.05;;;;;;;26.84;34.69;100062.31;5029140;28;20229;-55
2022/05/09 07:31:36;;;;;;;10.73;7.55;;;;;;;27.50;33.51;100065.31;5028523;28;20659;-56
2022/05/09 07:34:04;;;;;;;14.43;7.60;;;;;;;27.39;33.99;100067.13;5028965;28;20200;-55
2022/05/09 07:36:33;;;;;;;16.17;7.07;;;;;;;27.73;32.71;100056.94;5028719;28;20205;-55
2022/05/09 07:39:00;;;;;;;11.13;7.03;;;;;;;28.66;32.35;100058.06;5019613;28;20671;-55
2022/05/09 07:41:27;;;;;;;14.30;8.05;;;;;;;29.42;31.16;100054.16;5009504;28;20284;-56
2022/05/09 07:43:54;;;;;;;9.02;8.13;;;;;;;29.41;30.78;100062.34;5008806;28;20209;-56
2022/05/09 07:46:23;;;;;;;9.38;8.40;;;;;;;28.53;31.76;100063.72;5009080;28;20204;-54
2022/05/09 07:48:52;;;;;;;8.75;7.30;;;;;;;28.95;31.24;100056.13;5008806;28;20230;-53
2022/05/09 07:51:21;;;;;;;7.95;5.80;;;;;;;28.63;30.67;100043.16;5008799;28;20213;-54
2022/05/09 07:53:48;;;;;;;12.80;5.95;;;;;;;28.56;31.16;100066.06;5008963;28;20598;-54
2022/05/09 07:56:15;;;;;;;11.45;6.57;;;;;;;28.33;31.45;100052.22;5008846;28;20284;-54
2022/05/09 07:58:42;;;;;;;8.98;6.18;;;;;;;28.58;31.11;100056.09;5010932;28;20205;-54
2022/05/09 08:01:09;;;;;;;12.38;6.15;;;;;;;28.33;31.63;100062.91;5008380;28;20289;-53
2022/05/09 08:03:38;;;;;;;7.82;6.05;;;;;;;28.70;31.45;100054.91;5008679;28;20202;-53
2022/05/09 08:06:06;;;;;;;10.88;6.25;;;;;;;28.87;31.21;100056.03;5008546;28;20209;-54
2022/05/09 08:08:37;;;;;;;7.53;6.50;;;;;;;29.42;30.41;100054.16;5008914;28;20737;-54
2022/05/09 08:11:05;;;;;;;8.45;6.18;;;;;;;29.65;30.28;100056.41;5008609;28;20202;-56
2022/05/09 08:13:35;;;;;;;10.30;7.50;;;;;;;29.25;31.00;100062.97;5008722;28;20745;-55
2022/05/09 08:16:03;;;;;;;13.00;7.80;;;;;;;28.66;31.92;100055.38;5008410;28;20208;-56
2022/05/09 08:18:32;;;;;;;8.07;6.78;;;;;;;28.02;32.43;100059.56;5008292;28;20190;-54
2022/05/09 08:20:59;;;;;;;9.60;6.60;;;;;;;27.43;32.90;100057.00;5008291;28;20205;-54
2022/05/09 08:23:27;;;;;;;13.93;7.10;;;;;;;27.08;33.94;100062.84;5008336;28;20244;-55
2022/05/09 08:25:57;;;;;;;13.15;7.22;;;;;;;27.51;33.83;100051.84;5008144;28;20265;-56
2022/05/09 08:28:24;;;;;;;11.85;6.63;;;;;;;27.59;33.42;100048.50;5008159;28;20222;-55
2022/05/09 08:30:52;;;;;;;12.65;7.47;;;;;;;27.13;34.44;100057.94;5008133;28;20243;-55
2022/05/09 08:33:22;;;;;;;13.93;7.40;;;;;;;27.23;34.82;100049.97;5008341;28;20231;-55
2022/05/09 08:35:53;;;;;;;9.52;7.60;;;;;;;27.01;34.98;100045.69;5008380;28;20661;-55
2022/05/09 08:38:20;;;;;;;11.88;7.88;;;;;;;26.37;35.46;100054.81;5008146;28;20285;-56
2022/05/09 08:41:02;;;;;;;9.75;7.57;;;;;;;26.02;36.39;100049.78;5007976;28;20205;-56
2022/05/09 08:43:45;;;;;;;9.05;7.43;;;;;;;25.82;37.25;100050.63;5007963;28;20278;-54
2022/05/09 08:46:16;;;;;;;18.92;7.20;;;;;;;25.73;37.75;100046.06;5008212;28;20290;-55
2022/05/09 08:49:00;;;;;;;11.13;6.93;;;;;;;25.76;37.49;100051.13;5008356;28;20313;-55
2022/05/09 08:51:40;;;;;;;13.55;7.53;;;;;;;25.91;37.33;100051.66;5008496;28;20236;-56
2022/05/09 08:54:09;;;;;;;15.98;7.80;;;;;;;25.91;37.85;100047.19;5027716;28;20565;-57
2022/05/09 08:56:39;;;;;;;12.35;7.95;;;;;;;25.86;37.58;100046.72;5018746;28;20299;-53
2022/05/09 08:59:13;;;;;;;11.02;8.60;;;;;;;25.55;38.73;100052.88;5008251;28;20888;-53
2022/05/09 09:01:45;;;;;;;10.73;7.45;;;;;;;25.14;39.75;100046.47;5008110;28;20202;-54
2022/05/09 09:04:21;;;;;;;14.15;6.60;;;;;;;24.80;40.63;100039.47;5007827;28;20598;-54
2022/05/09 09:07:05;;;;;;;6.55;5.95;;;;;;;24.38;41.69;100041.84;5007888;28;20695;-54
2022/05/09 09:09:54;;;;;;;11.20;6.07;;;;;;;24.26;42.17;100050.78;5007656;28;20318;-54
2022/05/09 09:12:32;;;;;;;10.70;6.60;;;;;;;24.40;41.87;100034.63;5007015;28;20208;-53
2022/05/09 09:15:05;;;;;;;15.23;6.00;;;;;;;24.29;42.60;100039.94;5007784;28;20194;-56
2022/05/09 09:17:50;;;;;;;8.68;7.68;;;;;;;24.12;42.69;100017.34;5007894;28;20706;-54
2022/05/09 09:20:21;;;;;;;8.35;6.00;;;;;;;23.98;42.83;100035.25;5007787;28;20276;-55
2022/05/09 09:23:14;;;;;;;7.82;6.65;;;;;;;23.90;43.14;100035.84;5007261;28;20233;-55
2022/05/09 09:25:49;;;;;;;12.63;6.80;;;;;;;24.24;42.64;100034.16;5007689;28;20287;-55
2022/05/09 09:28:23;;;;;;;11.07;7.85;;;;;;;24.37;42.43;100031.41;5008671;28;20205;-54
2022/05/09 09:30:51;;;;;;;13.35;6.80;;;;;;;24.31;42.69;100027.38;5014542;28;20186;-52
2022/05/09 09:33:20;;;;;;;7.63;6.78;;;;;;;24.19;43.07;100025.66;5016584;28;20200;-54
2022/05/09 09:35:55;;;;;;;7.43;5.82;;;;;;;24.46;42.30;100025.38;5017431;28;20750;-54
2022/05/09 09:38:34;;;;;;;8.70;5.32;;;;;;;24.56;42.23;100013.06;5016703;28;20276;-54
2022/05/09 09:41:20;;;;;;;15.50;6.25;;;;;;;24.78;42.61;100013.03;5016574;28;20284;-54
2022/05/09 09:43:50;;;;;;;5.82;5.28;;;;;;;24.43;42.89;100017.63;5015081;28;20225;-54
2022/05/09 09:46:17;;;;;;;8.40;6.35;;;;;;;24.19;43.10;100017.69;5014844;28;20202;-54
2022/05/09 09:48:44;;;;;;;8.50;6.40;;;;;;;24.36;42.82;100006.66;5009190;28;20233;-54
2022/05/09 09:51:17;;;;;;;6.28;5.60;;;;;;;24.31;42.96;100011.47;5007428;28;20194;-54
2022/05/09 09:54:01;;;;;;;8.20;5.50;;;;;;;24.51;42.60;100005.44;5007296;28;20689;-54
2022/05/09 09:56:31;;;;;;;6.57;6.05;;;;;;;24.79;42.59;100008.59;5006866;28;20201;-53
2022/05/09 09:59:18;;;;;;;6.95;5.97;;;;;;;24.77;42.23;100003.38;5009273;28;20202;-54
2022/05/09 10:02:02;;;;;;;9.00;4.75;;;;;;;24.83;42.09;99991.44;5015892;28;20214;-54
2022/05/09 10:04:30;;;;;;;7.35;5.38;;;;;;;24.68;42.40;100006.78;5007019;28;20684;-54
2022/05/09 10:07:00;;;;;;;6.10;5.38;;;;;;;24.60;42.53;99998.59;5006931;28;20293;-53
2022/05/09 10:09:28;;;;;;;20.85;12.05;;;;;;;24.63;42.88;100000.13;5012723;28;20702;-53
2022/05/09 10:11:55;;;;;;;10.05;6.22;;;;;;;24.54;42.52;100001.72;5018627;28;20216;-54
2022/05/09 10:14:35;;;;;;;5.47;5.05;;;;;;;24.22;43.04;99999.78;5026633;28;20207;-54
2022/05/09 10:17:16;;;;;;;6.53;5.03;;;;;;;24.12;44.01;99992.63;5026262;28;20197;-53
2022/05/09 10:19:44;;;;;;;7.97;5.32;;;;;;;23.85;44.81;99983.16;5026395;28;20193;-53
2022/05/09 10:25:07;;;;;;;8.35;5.22;;;;;;;23.88;45.11;99988.22;5028539;28;20745;-56
2022/05/09 10:27:35;;;;;;;11.55;5.85;;;;;;;23.93;45.59;99989.69;5029717;28;20208;-56
2022/05/09 10:30:08;;;;;;;5.47;4.70;;;;;;;23.66;45.49;99989.97;5029584;28;20217;-56
2022/05/09 10:32:46;;;;;;;8.68;5.82;;;;;;;23.47;45.57;99982.53;5029902;28;20716;-54
2022/05/09 10:35:20;;;;;;;5.20;4.78;;;;;;;23.66;45.29;99987.31;5029764;28;20197;-55
2022/05/09 10:37:50;;;;;;;6.03;5.55;;;;;;;23.72;45.56;99981.53;5029846;28;20292;-56
2022/05/09 10:40:22;;;;;;;7.55;4.75;;;;;;;23.85;44.63;99954.00;5029613;28;20257;-56
2022/05/09 10:42:57;;;;;;;7.95;4.70;;;;;;;24.10;43.09;99975.97;5029588;28;20201;-56
2022/05/09 10:45:29;;;;;;;5.70;5.15;;;;;;;24.22;42.71;99977.72;5029555;28;20240;-56
2022/05/09 10:48:05;;;;;;;5.80;5.25;;;;;;;23.87;42.85;99973.28;5029437;28;20280;-56
2022/05/09 10:50:42;;;;;;;6.45;5.05;;;;;;;23.80;42.62;99980.03;5029449;28;20235;-55
2022/05/09 10:53:15;;;;;;;6.03;4.97;;;;;;;23.64;43.17;99976.00;5029226;28;20201;-55
2022/05/09 10:55:48;;;;;;;4.90;4.40;;;;;;;23.62;42.32;99969.94;5029555;28;20202;-56
2022/05/09 10:58:25;;;;;;;5.55;4.03;;;;;;;23.46;40.67;99970.25;5029586;28;20674;-57
2022/05/09 11:00:58;;;;;;;7.35;3.85;;;;;;;23.65;40.68;99967.94;5029405;28;20199;-56
2022/05/09 11:03:34;;;;;;;7.05;4.18;;;;;;;23.69;41.12;99969.41;5029417;28;20389;-56
2022/05/09 11:06:28;;;;;;;4.85;4.45;;;;;;;23.80;40.63;99956.16;5029045;28;20193;-56
2022/05/09 11:09:17;;;;;;;6.05;4.10;;;;;;;23.91;39.88;99965.94;5026984;28;20229;-56
2022/05/09 11:11:57;;;;;;;4.95;3.92;;;;;;;23.89;40.61;99975.81;5029122;28;20201;-56
2022/05/09 11:14:34;;;;;;;6.40;4.18;;;;;;;23.95;41.50;99955.94;5029412;28;20201;-56
2022/05/09 11:17:25;;;;;;;5.22;4.60;;;;;;;24.07;40.82;99966.44;5029144;28;20257;-56
2022/05/09 11:20:09;;;;;;;7.00;4.07;;;;;;;23.92;40.54;99957.03;5029206;28;20667;-56
2022/05/09 11:22:39;;;;;;;4.47;3.90;;;;;;;24.02;41.40;99957.16;5028904;28;20229;-56
2022/05/09 11:25:27;;;;;;;9.90;4.30;;;;;;;24.03;39.96;99953.56;5028675;28;20276;-56
2022/05/09 11:28:07;;;;;;;4.75;4.35;;;;;;;24.14;39.04;99958.88;5028870;28;20293;-56
2022/05/09 11:30:40;;;;;;;4.95;4.00;;;;;;;24.13;39.82;99958.03;5028949;28;20221;-53
2022/05/09 11:33:23;;;;;;;4.32;3.92;;;;;;;24.13;40.55;99943.91;5028731;28;20197;-53
2022/05/09 11:35:55;;;;;;;5.22;4.18;;;;;;;24.07;41.40;99944.38;5027861;28;20208;-54
2022/05/09 11:38:48;;;;;;;4.20;3.80;;;;;;;24.06;41.21;99940.03;5028787;28;20205;-54
2022/05/09 11:41:27;;;;;;;10.88;4.15;;;;;;;24.17;41.96;99940.88;5028852;28;20678;-53
2022/05/09 11:44:09;;;;;;;5.95;3.80;;;;;;;24.13;41.24;99939.44;5028724;28;20232;-54
2022/05/09 11:46:44;;;;;;;5.47;3.90;;;;;;;24.02;40.20;99938.59;5028422;28;20671;-54